createdAt,value
2023-05-24T00:02:04.633Z,1
2023-05-24T00:14:04.639Z,1
2023-05-24T00:26:04.536Z,1
2023-05-24T00:38:04.537Z,1
2023-05-24T00:50:04.652Z,1
2023-05-24T01:02:04.667Z,1
2023-05-24T01:14:04.605Z,1
2023-05-24T01:26:04.763Z,1
2023-05-24T01:38:04.703Z,1
2023-05-24T01:50:04.680Z,1
2023-05-24T02:02:04.616Z,1
2023-05-24T02:14:04.843Z,1
2023-05-24T02:26:04.730Z,1
2023-05-24T02:38:04.717Z,1
2023-05-24T02:50:04.633Z,1
2023-05-24T03:02:04.985Z,1
2023-05-24T03:14:04.790Z,4
2023-05-24T03:26:04.747Z,13
2023-05-24T03:38:04.696Z,34
2023-05-24T03:50:04.982Z,54
2023-05-24T04:02:04.819Z,71
2023-05-24T04:14:04.912Z,82
2023-05-24T04:26:04.922Z,87
2023-05-24T04:38:04.924Z,90
2023-05-24T04:50:04.846Z,93
2023-05-24T05:02:04.848Z,94
2023-05-24T05:14:04.990Z,95
2023-05-24T05:26:04.934Z,95
2023-05-24T05:38:04.871Z,94
2023-05-24T05:50:04.857Z,94
2023-05-24T06:02:05.012Z,95
2023-05-24T06:14:05.021Z,96
2023-05-24T06:26:04.882Z,96
2023-05-24T06:38:05.103Z,96
2023-05-24T06:50:05.034Z,96
2023-05-24T07:02:05.071Z,97
2023-05-24T07:14:04.976Z,97
2023-05-24T07:26:05.140Z,97
2023-05-24T07:38:05.083Z,97
2023-05-24T07:50:05.072Z,97
2023-05-24T08:02:05.000Z,98
2023-05-24T08:14:05.301Z,97
2023-05-24T08:26:05.124Z,97
2023-05-24T08:38:05.399Z,97
2023-05-24T08:50:05.124Z,98
2023-05-24T09:02:05.365Z,97
2023-05-24T09:14:05.198Z,98
2023-05-24T09:26:05.134Z,98
2023-05-24T09:38:05.058Z,98
2023-05-24T09:50:05.273Z,97
2023-05-24T10:02:05.170Z,97
2023-05-24T10:14:05.195Z,97
2023-05-24T10:26:05.343Z,97
2023-05-24T10:38:05.324Z,97
2023-05-24T10:50:05.238Z,98
2023-05-24T11:02:05.310Z,98
2023-05-24T11:14:05.373Z,97
2023-05-24T11:26:05.324Z,97
2023-05-24T11:38:05.255Z,97
2023-05-24T11:50:05.231Z,97
2023-05-24T12:02:05.405Z,97
2023-05-24T12:14:05.426Z,97
2023-05-24T12:26:05.330Z,97
2023-05-24T12:38:05.323Z,97
2023-05-24T12:50:05.389Z,97
2023-05-24T13:02:05.384Z,96
2023-05-24T13:14:05.378Z,96
2023-05-24T13:26:05.606Z,97
2023-05-24T13:38:05.448Z,97
2023-05-24T13:50:05.477Z,97
2023-05-24T14:02:05.436Z,97
2023-05-24T14:26:05.453Z,97
2023-05-24T14:38:05.440Z,97
2023-05-24T14:50:05.595Z,97
2023-05-24T15:02:05.545Z,97
2023-05-24T15:14:05.471Z,97
2023-05-24T15:26:05.450Z,97
2023-05-24T15:38:05.590Z,97
2023-05-24T15:50:05.615Z,97
2023-05-24T16:02:05.534Z,96
2023-05-24T16:14:05.476Z,95
2023-05-24T16:26:05.629Z,95
2023-05-24T16:38:05.628Z,95
2023-05-24T16:50:05.571Z,95
2023-05-24T17:02:05.589Z,95
2023-05-24T17:14:05.658Z,95
2023-05-24T17:26:05.650Z,94
2023-05-24T17:38:05.593Z,94
2023-05-24T17:50:05.781Z,94
2023-05-24T18:02:05.684Z,93
2023-05-24T18:14:05.665Z,93
2023-05-24T18:26:05.623Z,93
2023-05-24T18:38:05.834Z,93
2023-05-24T18:50:05.773Z,92
2023-05-24T19:02:05.754Z,91
2023-05-24T19:14:05.667Z,91
2023-05-24T19:26:05.855Z,90
2023-05-24T19:38:05.787Z,88
2023-05-24T19:50:05.868Z,85
2023-05-24T20:02:05.734Z,80
2023-05-24T20:14:05.902Z,71
2023-05-24T20:26:05.812Z,57
2023-05-24T20:38:05.806Z,36
2023-05-24T20:50:05.769Z,16
2023-05-24T21:02:05.945Z,6
2023-05-24T21:14:05.845Z,2
2023-05-24T21:26:05.811Z,1
2023-05-24T21:38:05.965Z,1
2023-05-24T21:50:05.994Z,1
2023-05-24T22:02:05.886Z,1
2023-05-24T22:14:05.864Z,1
2023-05-24T22:26:05.989Z,1
2023-05-24T22:38:05.978Z,1
2023-05-24T22:50:05.938Z,1
2023-05-24T23:02:05.907Z,1
2023-05-24T23:14:06.036Z,1
2023-05-24T23:26:06.018Z,1
2023-05-24T23:38:05.956Z,1
2023-05-24T23:50:05.998Z,1
